Time;durP1;ratioP1;P1;durP2;ratioP2;P2;SDS_P1;SDS_P2;PMS_P1;PMS_P2;Temp;Humidity;BMP_temperature;BMP_pressure;BME280_temperature;BME280_humidity;BME280_pressure;Samples;Min_cycle;Max_cycle;Signal;HPM_P1;HPM_P2
2021/05/28 00:00:40;;;;;;;15.32;9.25;;;;;;;-142.75;70.55;78795.28;5058467;28;20060;-80
2021/05/28 00:03:05;;;;;;;21.02;9.15;;;;;;;-142.75;70.62;78799.22;5043066;28;20500;-81
2021/05/28 00:05:30;;;;;;;17.52;9.05;;;;;;;-142.75;70.70;78799.22;5045096;28;20505;-79
2021/05/28 00:07:56;;;;;;;19.03;8.97;;;;;;;-142.75;70.49;78781.50;5064110;28;20028;-79
2021/05/28 00:10:21;;;;;;;15.15;8.40;;;;;;;-142.75;70.64;78789.38;5043257;28;20350;-81
2021/05/28 00:12:47;;;;;;;11.80;6.68;;;;;;;-142.75;70.75;78769.69;5048024;28;20059;-79
2021/05/28 00:15:14;;;;;;;12.70;6.35;;;;;;;-142.75;70.58;78785.44;5046197;28;20020;-80
2021/05/28 00:17:39;;;;;;;8.93;4.20;;;;;;;-142.75;70.52;78765.75;5044089;28;20059;-81
2021/05/28 00:20:07;;;;;;;6.97;3.40;;;;;;;-142.75;70.24;78807.09;5042712;28;20499;-80
2021/05/28 00:22:32;;;;;;;13.70;3.57;;;;;;;-142.75;69.89;78822.88;5057865;28;20021;-80
2021/05/28 00:24:57;;;;;;;7.03;4.95;;;;;;;-142.75;70.58;78832.72;5044210;28;20024;-80
2021/05/28 00:27:29;;;;;;;9.30;6.03;;;;;;;-142.75;70.62;78832.72;5046410;28;20394;-81
2021/05/28 00:29:54;;;;;;;107.87;7.17;;;;;;;-142.75;70.46;78834.69;5040845;28;20108;-82
2021/05/28 00:32:20;;;;;;;7.93;5.47;;;;;;;-142.75;70.68;78838.63;5058672;28;20655;-81
2021/05/28 00:34:49;;;;;;;11.48;6.47;;;;;;;-142.75;70.78;78840.59;5056947;28;20044;-81
2021/05/28 00:37:14;;;;;;;15.03;7.53;;;;;;;-142.75;70.64;78838.63;5065553;28;20032;-82
2021/05/28 00:39:39;;;;;;;19.63;9.20;;;;;;;-142.75;71.17;78807.09;5062496;28;20044;-81
2021/05/28 00:42:04;;;;;;;17.77;10.47;;;;;;;-142.75;71.19;78820.88;5064583;28;20270;-81
2021/05/28 00:44:32;;;;;;;21.38;9.57;;;;;;;-142.75;71.40;78824.84;5061475;28;20430;-81
2021/05/28 00:46:58;;;;;;;20.83;9.73;;;;;;;-142.75;71.35;78814.97;5039387;28;20031;-80
2021/05/28 00:49:23;;;;;;;15.27;9.13;;;;;;;-142.75;71.24;78824.84;5061279;28;20021;-81
2021/05/28 00:51:49;;;;;;;18.75;10.45;;;;;;;-142.75;71.25;78822.88;5061810;28;20033;-80
2021/05/28 00:54:14;;;;;;;14.35;7.82;;;;;;;-142.75;71.12;78820.88;5066866;28;20031;-80
2021/05/28 00:56:40;;;;;;;70.05;9.75;;;;;;;-142.75;70.93;78834.69;5047928;28;20071;-80
2021/05/28 00:59:06;;;;;;;17.15;8.75;;;;;;;-142.75;70.95;78842.56;5061412;28;20032;-80
2021/05/28 01:01:32;;;;;;;20.95;11.30;;;;;;;-142.75;71.08;78836.66;5069642;28;20088;-80
2021/05/28 01:03:59;;;;;;;26.63;14.03;;;;;;;-142.75;71.53;78779.53;5050077;28;20029;-81
2021/05/28 01:06:25;;;;;;;21.43;12.70;;;;;;;-142.75;71.74;78795.28;5062436;28;20082;-82
2021/05/28 01:08:50;;;;;;;36.47;15.30;;;;;;;-142.75;71.78;78801.19;5067187;28;20414;-80
2021/05/28 01:11:16;;;;;;;25.90;14.40;;;;;;;-142.75;71.82;78785.44;5043092;28;20058;-80
2021/05/28 01:13:41;;;;;;;31.73;14.38;;;;;;;-142.75;71.94;78795.28;5066200;28;20039;-82
2021/05/28 01:16:06;;;;;;;25.77;15.57;;;;;;;-142.75;71.88;78805.13;5048128;28;20033;-80
2021/05/28 01:18:32;;;;;;;35.13;17.02;;;;;;;-142.75;71.96;78807.09;5045342;28;20406;-82
2021/05/28 01:20:57;;;;;;;26.70;15.57;;;;;;;-142.75;72.14;78799.22;5042664;28;20027;-80
2021/05/28 01:23:23;;;;;;;28.77;16.38;;;;;;;-142.75;72.05;78781.50;5060986;28;20103;-80
2021/05/28 01:25:48;;;;;;;41.05;12.70;;;;;;;-142.75;71.72;78805.13;5041452;28;20052;-81
2021/05/28 01:28:14;;;;;;;20.98;12.98;;;;;;;-142.75;71.44;78826.81;5044393;28;20626;-79
2021/05/28 01:30:39;;;;;;;20.25;12.55;;;;;;;-142.75;71.41;78842.56;5042511;28;20087;-80
2021/05/28 01:33:05;;;;;;;19.85;13.15;;;;;;;-142.75;71.32;78858.31;5051407;28;20032;-80
2021/05/28 01:35:30;;;;;;;21.83;14.63;;;;;;;-142.75;71.53;78860.28;5064177;28;20028;-81
2021/05/28 01:37:56;;;;;;;25.17;14.95;;;;;;;-142.75;71.56;78870.13;5065106;28;20108;-79
2021/05/28 01:40:21;;;;;;;23.23;14.57;;;;;;;-142.75;71.53;78868.16;5047415;28;20454;-82
2021/05/28 01:42:48;;;;;;;23.02;13.40;;;;;;;-142.75;71.55;78878.00;5043416;28;20268;-80
2021/05/28 01:45:13;;;;;;;19.25;13.30;;;;;;;-142.75;71.49;78876.03;5062932;28;20055;-80
2021/05/28 01:47:39;;;;;;;21.80;13.35;;;;;;;-142.75;71.84;78852.41;5054975;28;20025;-79
2021/05/28 01:50:05;;;;;;;23.95;14.98;;;;;;;-142.75;72.08;78870.13;5039726;28;20442;-80
2021/05/28 01:52:31;;;;;;;25.17;14.73;;;;;;;-142.75;72.17;78881.94;5048319;28;20401;-80
2021/05/28 01:54:56;;;;;;;30.80;16.98;;;;;;;-142.75;72.17;78881.94;5035060;28;20036;-80
2021/05/28 01:57:22;;;;;;;70.40;14.23;;;;;;;-142.75;71.95;78889.81;5061751;28;20029;-80
2021/05/28 01:59:47;;;;;;;54.80;13.13;;;;;;;-142.75;71.78;78891.78;5054167;28;20035;-80
2021/05/28 02:02:13;;;;;;;38.03;14.02;;;;;;;-142.75;71.63;78893.78;5042390;28;20075;-80
2021/05/28 02:04:39;;;;;;;24.35;15.30;;;;;;;-142.75;71.84;78903.63;5055311;28;20036;-79
2021/05/28 02:07:04;;;;;;;34.47;15.73;;;;;;;-142.75;71.69;78889.81;5053357;28;20029;-81
2021/05/28 02:09:30;;;;;;;39.35;15.02;;;;;;;-142.75;71.89;78889.81;5035732;28;20394;-81
2021/05/28 02:11:57;;;;;;;20.33;12.77;;;;;;;-142.75;71.78;78901.66;5054207;28;21558;-81
2021/05/28 02:14:24;;;;;;;38.73;17.47;;;;;;;-142.75;72.07;78889.81;5054396;28;20029;-80
2021/05/28 02:16:49;;;;;;;24.63;15.53;;;;;;;-142.75;72.17;78893.78;5057787;28;20044;-79
2021/05/28 02:19:15;;;;;;;26.40;15.93;;;;;;;-142.75;72.55;78866.19;5067741;28;20485;-80
2021/05/28 02:21:40;;;;;;;27.17;16.38;;;;;;;-142.75;72.30;78885.88;5036427;28;20033;-79
2021/05/28 02:24:11;;;;;;;26.08;16.13;;;;;;;-142.75;72.41;78860.28;5063071;28;20041;-79
2021/05/28 02:26:36;;;;;;;43.13;21.00;;;;;;;-142.75;72.63;78824.84;5071355;28;20501;-80
2021/05/28 02:29:02;;;;;;;28.38;16.52;;;;;;;-142.75;72.74;78838.63;5075226;28;20024;-78
2021/05/28 02:31:27;;;;;;;28.38;17.80;;;;;;;-142.75;72.95;78850.44;5057844;28;20115;-78
2021/05/28 02:33:52;;;;;;;30.10;18.03;;;;;;;-142.75;73.01;78854.38;5076719;28;20074;-78
2021/05/28 02:36:18;;;;;;;39.37;21.30;;;;;;;-142.75;72.93;78850.44;5057875;28;20362;-78
2021/05/28 02:38:43;;;;;;;44.55;22.00;;;;;;;-142.75;73.13;78838.63;5065137;28;20029;-78
2021/05/28 02:41:08;;;;;;;33.23;20.53;;;;;;;-142.75;73.16;78826.81;5056084;28;20040;-79
2021/05/28 02:43:36;;;;;;;28.73;19.23;;;;;;;-142.75;72.96;78858.31;5064451;28;20301;-79
2021/05/28 02:46:01;;;;;;;31.53;18.73;;;;;;;-142.75;72.77;78878.00;5057664;28;20095;-78
2021/05/28 02:48:26;;;;;;;31.27;19.10;;;;;;;-142.75;72.82;78897.72;5075725;28;20029;-78
2021/05/28 02:50:52;;;;;;;32.83;19.10;;;;;;;-142.75;73.04;78899.69;5057524;28;20342;-78
2021/05/28 02:53:17;;;;;;;37.88;19.67;;;;;;;-142.75;73.09;78893.78;5057703;28;20028;-78
2021/05/28 02:55:43;;;;;;;35.20;21.90;;;;;;;-142.75;73.06;78905.59;5074285;28;20076;-78
2021/05/28 02:58:08;;;;;;;33.30;19.77;;;;;;;-142.75;73.25;78893.78;5075311;28;20494;-78
2021/05/28 03:00:33;;;;;;;28.65;17.45;;;;;;;-142.75;73.27;78899.69;5074787;28;20025;-79
2021/05/28 03:02:59;;;;;;;25.33;15.30;;;;;;;-142.75;73.19;78897.72;5074008;28;20398;-78
2021/05/28 03:05:24;;;;;;;23.50;15.17;;;;;;;-142.75;73.41;78872.09;5073748;28;20267;-78
2021/05/28 03:07:49;;;;;;;18.52;10.88;;;;;;;-142.75;73.31;78866.19;5073812;28;21573;-78
2021/05/28 03:10:15;;;;;;;15.95;10.82;;;;;;;-142.75;73.22;78870.13;5059286;28;20020;-79
2021/05/28 03:12:40;;;;;;;18.10;12.50;;;;;;;-142.75;73.24;78868.16;5054949;28;20056;-78
2021/05/28 03:15:07;;;;;;;23.63;15.30;;;;;;;-142.75;73.19;78858.31;5037223;28;20029;-80
2021/05/28 03:17:33;;;;;;;33.10;15.60;;;;;;;-142.75;73.13;78856.34;5053518;28;20279;-78
2021/05/28 03:19:58;;;;;;;24.30;15.25;;;;;;;-142.75;73.27;78854.38;5036239;28;20025;-77
2021/05/28 03:22:31;;;;;;;27.10;16.60;;;;;;;-142.75;73.25;78840.59;5055878;28;20047;-78
2021/05/28 03:24:57;;;;;;;30.53;17.33;;;;;;;-142.75;73.07;78832.72;5074236;28;20513;-78
2021/05/28 03:27:22;;;;;;;34.03;18.40;;;;;;;-142.75;73.19;78834.69;5055428;28;20088;-78
2021/05/28 03:29:47;;;;;;;32.55;19.75;;;;;;;-142.75;73.22;78816.94;5057659;28;20020;-78
2021/05/28 03:32:13;;;;;;;33.47;21.13;;;;;;;-142.75;73.26;78818.91;5074621;28;20032;-78
2021/05/28 03:34:38;;;;;;;41.63;24.00;;;;;;;-142.75;73.22;78791.34;5074821;28;20270;-78
2021/05/28 03:37:03;;;;;;;45.22;23.85;;;;;;;-142.75;73.30;78797.25;5073502;28;20461;-79
2021/05/28 03:39:29;;;;;;;41.28;25.52;;;;;;;-142.75;73.38;78787.41;5075045;28;20099;-78
2021/05/28 03:41:54;;;;;;;39.15;24.67;;;;;;;-142.75;73.30;78787.41;5074685;28;20044;-79
2021/05/28 03:44:19;;;;;;;41.67;24.92;;;;;;;-142.75;73.21;78785.44;5074554;28;20482;-79
2021/05/28 03:46:45;;;;;;;43.10;25.80;;;;;;;-142.75;73.24;78775.59;5073619;22;20090;-80
2021/05/28 03:49:10;;;;;;;51.50;27.58;;;;;;;-142.75;73.14;78763.78;5060579;28;20021;-79
2021/05/28 03:51:35;;;;;;;50.45;27.45;;;;;;;-142.75;73.16;78767.72;5059376;28;20032;-79
2021/05/28 03:54:01;;;;;;;46.50;26.87;;;;;;;-142.75;73.39;78769.69;5061324;28;20075;-78
2021/05/28 03:56:26;;;;;;;45.35;26.27;;;;;;;-142.75;73.37;78771.66;5042928;28;20279;-79
2021/05/28 03:58:51;;;;;;;42.38;26.25;;;;;;;-142.75;73.27;78759.84;5044929;28;20111;-79
2021/05/28 04:01:17;;;;;;;49.80;26.55;;;;;;;-142.75;73.11;78767.72;5041704;28;20029;-79
2021/05/28 04:03:42;;;;;;;50.78;25.40;;;;;;;-142.75;73.28;78761.81;5061646;28;20024;-79
2021/05/28 04:06:07;;;;;;;73.35;26.35;;;;;;;-142.75;73.34;78761.81;5044536;28;20013;-81
2021/05/28 04:08:33;;;;;;;50.60;27.57;;;;;;;-142.75;73.30;78755.91;5042862;28;20040;-79
2021/05/28 04:10:58;;;;;;;41.57;24.73;;;;;;;-142.75;73.40;78742.09;5043262;28;20374;-81
2021/05/28 04:13:31;;;;;;;61.93;23.70;;;;;;;-142.75;73.26;78738.16;5043721;28;20305;-80
2021/05/28 04:15:58;;;;;;;47.00;21.73;;;;;;;-142.75;73.13;78734.22;5042124;28;20103;-78
2021/05/28 04:18:23;;;;;;;66.07;23.07;;;;;;;-142.75;73.12;78736.19;5059888;28;20021;-79
2021/05/28 04:20:48;;;;;;;49.28;22.08;;;;;;;-142.75;73.05;78734.22;5062456;28;20082;-80
2021/05/28 04:23:14;;;;;;;76.03;22.33;;;;;;;-142.75;73.04;78732.25;5043644;28;20028;-80
2021/05/28 04:25:39;;;;;;;95.20;21.07;;;;;;;-142.75;72.70;78740.13;5048843;28;20025;-80
2021/05/28 04:28:04;;;;;;;47.95;21.08;;;;;;;-142.75;72.81;78744.09;5063777;28;20409;-79
2021/05/28 04:30:29;;;;;;;71.25;22.25;;;;;;;-142.75;72.81;78742.09;5049140;28;20048;-79
2021/05/28 04:32:55;;;;;;;68.00;23.00;;;;;;;-142.75;72.58;78732.25;5064510;28;20043;-80
2021/05/28 04:35:20;;;;;;;72.68;22.42;;;;;;;-142.75;72.70;78736.19;5046809;28;20272;-78
2021/05/28 04:37:46;;;;;;;63.47;22.42;;;;;;;-142.75;72.70;78732.25;5065797;28;20029;-80
2021/05/28 04:40:12;;;;;;;57.80;22.40;;;;;;;-142.75;72.68;78734.22;5063872;28;20028;-79
2021/05/28 04:42:37;;;;;;;61.67;22.53;;;;;;;-142.75;72.80;78722.41;5047203;28;20028;-79
2021/05/28 04:45:04;;;;;;;65.88;24.00;;;;;;;-142.75;72.77;78706.66;5047226;28;20514;-79
2021/05/28 04:47:32;;;;;;;47.97;23.40;;;;;;;-142.75;72.62;78683.03;5047952;28;20025;-78
2021/05/28 04:49:57;;;;;;;52.77;21.27;;;;;;;-142.75;72.20;78661.34;5047065;28;20607;-80
2021/05/28 04:52:22;;;;;;;45.40;21.03;;;;;;;-142.75;72.03;78657.41;5047411;28;20032;-79
2021/05/28 04:54:47;;;;;;;56.37;21.87;;;;;;;-142.75;71.93;78661.34;5066618;28;20767;-79
2021/05/28 04:57:13;;;;;;;72.13;21.08;;;;;;;-142.75;71.65;78647.56;5046779;28;20035;-81
2021/05/28 04:59:38;;;;;;;62.47;20.52;;;;;;;-142.75;71.39;78637.72;5062480;28;20637;-79
2021/05/28 05:02:05;;;;;;;64.77;21.10;;;;;;;-142.75;71.19;78633.78;5046749;28;20043;-80
2021/05/28 05:04:30;;;;;;;60.03;22.73;;;;;;;-142.75;71.28;78618.03;5044947;28;20275;-78
2021/05/28 05:06:55;;;;;;;43.70;21.33;;;;;;;-142.75;70.92;78608.19;5063877;28;20028;-79
2021/05/28 05:09:20;;;;;;;40.15;19.90;;;;;;;-142.75;70.67;78590.47;5045646;28;20275;-80
2021/05/28 05:11:46;;;;;;;49.83;21.40;;;;;;;-142.75;70.30;78586.53;5062960;28;20021;-79
2021/05/28 05:14:11;;;;;;;42.03;21.27;;;;;;;-142.75;70.36;78578.63;5049065;28;20282;-80
2021/05/28 05:16:36;;;;;;;41.27;21.47;;;;;;;-142.75;70.31;78547.13;5047897;28;20291;-80
2021/05/28 05:19:02;;;;;;;38.22;22.00;;;;;;;-142.75;70.03;78531.38;5065779;28;20095;-79
2021/05/28 05:21:27;;;;;;;38.22;21.83;;;;;;;-142.75;69.58;78515.63;5047819;28;20029;-81
2021/05/28 05:23:52;;;;;;;29.45;19.70;;;;;;;-142.75;68.82;78501.84;5047564;28;20028;-80
2021/05/28 05:26:17;;;;;;;31.10;18.55;;;;;;;-142.75;68.40;78497.91;5068015;28;20103;-80
2021/05/28 05:28:43;;;;;;;27.67;18.80;;;;;;;-142.75;68.12;78476.22;5063979;28;20473;-79
2021/05/28 05:31:08;;;;;;;30.52;19.02;;;;;;;-142.75;67.75;78474.25;5047127;28;20024;-81
2021/05/28 05:33:33;;;;;;;33.40;19.55;;;;;;;-142.75;67.74;78462.44;5065547;28;20029;-82
2021/05/28 05:35:58;;;;;;;31.48;20.15;;;;;;;-142.75;67.27;78423.06;5048214;28;20067;-81
2021/05/28 05:38:24;;;;;;;26.52;19.42;;;;;;;-142.75;66.64;78393.50;5049936;28;20107;-81
2021/05/28 05:40:49;;;;;;;27.85;19.02;;;;;;;-142.75;65.65;78363.97;5072005;28;20052;-82
2021/05/28 05:43:14;;;;;;;25.10;19.30;;;;;;;-142.75;65.43;78360.03;5047199;28;20486;-81
2021/05/28 05:45:40;;;;;;;25.63;18.27;;;;;;;-142.75;65.24;78362.00;5068741;28;20494;-83
2021/05/28 05:48:06;;;;;;;24.98;18.08;;;;;;;-142.75;64.80;78369.88;5048275;28;20024;-82
2021/05/28 05:50:32;;;;;;;27.45;19.38;;;;;;;-142.75;65.13;78375.78;5048083;28;20024;-82
2021/05/28 05:52:57;;;;;;;33.85;21.20;;;;;;;-142.75;65.39;78369.88;5065375;28;20054;-82
2021/05/28 05:55:23;;;;;;;34.58;18.83;;;;;;;-142.75;65.49;78336.41;5047940;28;20131;-82
2021/05/28 05:57:48;;;;;;;;;;;;;;;-142.75;65.34;78291.09;5065248;28;20017;-83
2021/05/28 06:00:14;;;;;;;27.85;18.98;;;;;;;-142.75;64.11;78228.09;5070706;28;19975;-82
2021/05/28 06:02:39;;;;;;;26.75;19.75;;;;;;;-142.75;62.61;78214.31;5049866;28;20029;-84
2021/05/28 06:05:06;;;;;;;26.25;19.40;;;;;;;-142.75;62.77;78208.41;5067186;28;20107;-84
2021/05/28 06:07:31;;;;;;;26.88;18.95;;;;;;;-142.75;62.58;78204.47;5045714;28;20021;-84
2021/05/28 06:09:56;;;;;;;31.40;20.73;;;;;;;-142.75;61.77;78184.78;5067284;28;20058;-83
2021/05/28 06:12:21;;;;;;;;;;;;;;;-142.75;61.70;78190.69;5066289;28;20112;-84
2021/05/28 06:14:47;;;;;;;30.15;18.58;;;;;;;-142.75;60.80;78206.44;5046368;28;19912;-83
2021/05/28 06:17:12;;;;;;;31.73;19.73;;;;;;;-142.75;62.54;78157.19;5046844;28;20020;-86
2021/05/28 06:19:37;;;;;;;28.00;19.05;;;;;;;-142.75;61.30;78094.19;5062148;28;20025;-86
2021/05/28 06:22:03;;;;;;;25.83;19.08;;;;;;;-142.75;60.66;78027.22;5045398;28;20089;-87
2021/05/28 06:24:28;;;;;;;25.23;18.05;;;;;;;-142.75;59.23;77991.78;5044098;28;20024;-87
2021/05/28 06:26:53;;;;;;;23.95;17.90;;;;;;;-142.75;57.82;77928.78;5044832;28;20440;-85
2021/05/28 06:29:18;;;;;;;;;;;;;;;-142.75;56.80;77903.16;5045296;28;20021;-87
2021/05/28 06:31:45;;;;;;;24.85;16.88;;;;;;;-142.75;56.90;77838.19;5062112;28;19912;-85
2021/05/28 06:34:10;;;;;;;22.00;15.90;;;;;;;-142.75;56.56;77881.50;5042759;28;20394;-84
2021/05/28 06:36:36;;;;;;;23.33;17.70;;;;;;;-142.75;56.85;77901.19;5063201;28;20039;-84
2021/05/28 06:39:01;;;;;;;23.70;14.10;;;;;;;-142.75;56.76;78009.50;5046022;28;20075;-85
2021/05/28 06:41:27;;;;;;;25.15;15.10;;;;;;;-142.75;58.09;78023.28;5061084;28;20086;-84
2021/05/28 06:43:52;;;;;;;21.55;15.25;;;;;;;-142.75;58.22;78015.41;5065491;28;20126;-84
2021/05/28 06:46:17;;;;;;;26.30;16.40;;;;;;;-142.75;58.89;78046.91;5046404;28;20068;-85
2021/05/28 06:48:43;;;;;;;21.25;13.80;;;;;;;-142.75;57.73;78029.19;5044270;28;20020;-82
2021/05/28 06:51:10;;;;;;;16.85;12.05;;;;;;;-142.75;56.95;77954.38;5044902;28;20028;-85
2021/05/28 06:53:35;;;;;;;18.35;11.15;;;;;;;-142.75;56.24;77972.09;5059453;28;20405;-81
2021/05/28 06:56:01;;;;;;;17.88;11.23;;;;;;;-142.75;56.11;77879.53;5059652;28;20033;-83
2021/05/28 06:58:27;;;;;;;;;;;;;;;-142.75;55.22;77822.44;5049350;28;20037;-83
2021/05/28 07:00:52;;;;;;;14.68;9.88;;;;;;;-142.75;54.35;77857.88;5042258;28;19924;-82
2021/05/28 07:03:17;;;;;;;20.23;11.25;;;;;;;-142.75;54.02;77727.94;5048432;28;20440;-81
2021/05/28 07:05:42;;;;;;;;;;;;;;;-142.75;53.37;77777.16;5061530;28;20103;-84
2021/05/28 07:08:08;;;;;;;16.67;10.00;;;;;;;-142.75;52.62;77731.88;5045110;28;20538;-81
2021/05/28 07:10:33;;;;;;;;;;;;;;;-142.75;51.40;77631.44;5050646;28;20107;-83
2021/05/28 07:12:59;;;;;;;17.52;10.52;;;;;;;-142.75;51.21;77692.47;5043401;28;19917;-81
2021/05/28 07:15:24;;;;;;;17.20;10.68;;;;;;;-142.75;51.68;77680.66;5062542;28;20650;-81
2021/05/28 07:17:50;;;;;;;14.50;9.23;;;;;;;-142.75;50.73;77633.41;5036908;28;20040;-83
2021/05/28 07:20:15;;;;;;;;;;;;;;;-142.75;51.18;77540.88;5061853;28;20024;-82
2021/05/28 07:22:41;;;;;;;16.02;9.13;;;;;;;-142.75;48.69;77558.59;5063864;28;19916;-82
2021/05/28 07:25:07;;;;;;;;;;;;;;;-142.75;51.59;77651.13;5064146;28;20060;-84
2021/05/28 07:27:32;;;;;;;14.75;10.00;;;;;;;-142.75;52.84;77812.59;5039016;28;20021;-83
2021/05/28 07:29:57;;;;;;;;;;;;;;;-142.75;52.88;77725.97;5046696;28;20051;-83
2021/05/28 07:32:23;;;;;;;21.40;11.40;;;;;;;-142.75;51.97;77597.97;5041914;28;19913;-81
2021/05/28 07:34:49;;;;;;;;;;;;;;;-142.75;48.94;77523.16;5071498;28;20517;-81
2021/05/28 07:37:14;;;;;;;17.98;8.75;;;;;;;-142.75;48.31;77507.41;5062338;28;19919;-80
2021/05/28 07:39:39;;;;;;;;;;;;;;;-142.75;49.03;77519.22;5052470;28;20049;-81
2021/05/28 07:42:05;;;;;;;14.00;9.35;;;;;;;-142.75;50.43;77645.22;5062201;28;19912;-82
2021/05/28 07:44:31;;;;;;;13.90;9.13;;;;;;;-142.75;51.08;77643.25;5048711;28;20494;-82
2021/05/28 07:46:56;;;;;;;;;;;;;;;-142.75;50.15;77566.47;5047167;28;20175;-81
2021/05/28 07:49:22;;;;;;;9.07;6.60;;;;;;;-142.75;48.56;77523.16;5070006;28;19920;-81
2021/05/28 07:51:47;;;;;;;;;;;;;;;-142.75;49.84;77538.91;5042194;28;20025;-81
2021/05/28 07:54:13;;;;;;;11.38;7.45;;;;;;;-142.75;48.41;77485.75;5054110;28;20004;-81
2021/05/28 07:56:38;;;;;;;;;;;;;;;-142.75;47.90;77592.06;5035001;28;20021;-81
2021/05/28 07:59:04;;;;;;;14.73;7.45;;;;;;;-142.75;49.21;77552.69;5045263;28;20396;-78
2021/05/28 08:01:30;;;;;;;8.68;5.53;;;;;;;-142.75;47.46;77513.31;5036357;28;20025;-77
2021/05/28 08:03:56;;;;;;;9.82;6.28;;;;;;;-142.75;47.48;77471.97;5055485;28;20391;-77
2021/05/28 08:06:22;;;;;;;10.10;5.70;;;;;;;-142.75;47.92;77615.69;5064433;28;20033;-79
2021/05/28 08:08:47;;;;;;;;;;;;;;;-142.75;47.27;77625.53;5068551;28;20033;-79
2021/05/28 08:11:13;;;;;;;9.40;5.95;;;;;;;-142.75;49.28;77471.97;5067593;28;19920;-79
2021/05/28 08:13:39;;;;;;;14.30;5.32;;;;;;;-142.75;45.81;77440.44;5036377;28;20402;-78
2021/05/28 08:16:04;;;;;;;;;;;;;;;-142.75;46.20;77491.66;5054423;28;20033;-78
2021/05/28 08:18:30;;;;;;;10.35;4.25;;;;;;;-142.75;43.84;77426.66;5043030;28;19920;-77
2021/05/28 08:20:55;;;;;;;;;;;;;;;-142.75;45.71;77424.69;5041502;28;20028;-79
2021/05/28 08:23:21;;;;;;;7.45;4.90;;;;;;;-142.75;45.24;77243.56;5055998;28;20535;-80
2021/05/28 08:25:49;;;;;;;;;;;;;;;-142.75;43.35;77174.66;5039036;28;20495;-78
2021/05/28 08:28:14;;;;;;;8.45;5.40;;;;;;;-142.75;41.07;77044.72;5057486;28;19912;-78
2021/05/28 08:30:39;;;;;;;13.68;5.55;;;;;;;-142.75;42.31;77247.50;5053523;28;20031;-80
2021/05/28 08:33:07;;;;;;;;;;;;;;;-142.75;41.96;77200.25;5037142;28;20033;-78
2021/05/28 08:35:33;;;;;;;8.15;4.55;;;;;;;-142.75;43.63;77340.03;5061652;28;19919;-78
2021/05/28 08:37:58;;;;;;;;;;;;;;;-142.75;43.56;77247.50;5055588;28;20029;-78
2021/05/28 08:40:25;;;;;;;6.15;3.30;;;;;;;-142.75;40.67;77245.53;5068103;28;19924;-78
2021/05/28 08:42:51;;;;;;;5.78;3.38;;;;;;;-142.75;42.11;77316.41;5041473;28;20094;-76
2021/05/28 08:45:17;;;;;;;8.43;5.07;;;;;;;-142.75;42.29;77397.13;5043735;28;20084;-78
2021/05/28 08:47:43;;;;;;;;;;;;;;;-142.75;43.86;77377.44;5073553;28;20021;-77
2021/05/28 08:50:09;;;;;;;7.95;4.30;;;;;;;-142.75;43.51;77200.25;5071773;28;19960;-77
2021/05/28 08:52:34;;;;;;;6.07;3.15;;;;;;;-142.75;39.86;77095.91;5054538;28;20116;-78
2021/05/28 08:54:59;;;;;;;;;;;;;;;-142.75;41.31;77082.13;5050147;28;20075;-77
2021/05/28 08:57:25;;;;;;;6.07;4.20;;;;;;;-142.75;42.63;77141.19;5052647;28;19935;-77
2021/05/28 08:59:50;;;;;;;6.45;4.25;;;;;;;-142.75;40.91;76940.38;5035719;28;20028;-78
2021/05/28 09:02:35;;;;;;;5.35;3.80;;;;;;;-142.75;38.55;76857.69;5059802;28;20028;-78
2021/05/28 09:05:12;;;;;;;7.63;4.40;;;;;;;-142.75;38.69;77036.84;5050023;28;20032;-77
2021/05/28 09:07:39;;;;;;;6.70;3.63;;;;;;;-142.75;39.33;77070.31;5033977;28;20493;-77
2021/05/28 09:10:29;;;;;;;6.93;4.43;;;;;;;-142.75;39.13;77086.06;5052582;28;20064;-78
2021/05/28 09:13:06;;;;;;;7.30;4.60;;;;;;;-142.75;39.66;76916.75;5061238;28;20036;-77
2021/05/28 09:15:31;;;;;;;7.28;4.43;;;;;;;-142.75;39.41;76997.47;5034956;28;20025;-77
2021/05/28 09:17:57;;;;;;;6.45;4.40;;;;;;;-142.75;40.96;77099.84;5042525;28;20563;-77
2021/05/28 09:20:23;;;;;;;7.75;4.68;;;;;;;-142.75;39.73;76845.88;5074143;28;20540;-78
2021/05/28 09:23:04;;;;;;;7.95;4.18;;;;;;;-142.75;40.09;77076.22;5055363;28;20024;-76
2021/05/28 09:25:49;;;;;;;6.68;3.35;;;;;;;-142.75;40.83;77214.03;5042529;28;20489;-78
2021/05/28 09:28:14;;;;;;;7.35;3.92;;;;;;;-142.75;41.30;77135.28;5059802;28;20073;-78
2021/05/28 09:30:40;;;;;;;7.30;4.13;;;;;;;-142.75;42.62;77143.16;5043697;28;20420;-78
2021/05/28 09:33:05;;;;;;;;;;;;;;;-142.75;41.49;77227.81;5053151;28;20032;-78
2021/05/28 09:35:30;;;;;;;8.77;4.70;;;;;;;-142.75;41.71;77206.16;5045771;28;19912;-78
2021/05/28 09:37:58;;;;;;;;;;;;;;;-142.75;40.76;77074.25;5052499;28;20051;-77
2021/05/28 09:40:30;;;;;;;7.38;4.22;;;;;;;-142.75;43.19;77294.75;5045631;28;19916;-77
2021/05/28 09:43:02;;;;;;;6.07;3.85;;;;;;;-142.75;43.02;77245.53;5038875;28;20048;-76
2021/05/28 09:45:36;;;;;;;7.68;4.22;;;;;;;-142.75;42.15;77017.16;5039689;28;20160;-78
2021/05/28 09:48:18;;;;;;;5.93;4.40;;;;;;;-142.75;40.67;76920.69;5054551;28;20073;-77
2021/05/28 09:50:45;;;;;;;7.43;4.53;;;;;;;-142.75;41.93;77007.31;5062140;28;20534;-77
2021/05/28 09:53:33;;;;;;;6.38;4.35;;;;;;;-142.75;40.70;76967.94;5057791;28;20055;-77
2021/05/28 09:56:20;;;;;;;12.63;4.70;;;;;;;-142.75;38.87;76704.16;5063991;28;20024;-76
2021/05/28 09:59:04;;;;;;;6.13;3.42;;;;;;;-142.75;34.09;76607.69;5050930;28;20111;-78
2021/05/28 10:01:30;;;;;;;6.63;2.90;;;;;;;-142.75;34.65;76525.03;5066357;28;20090;-77
2021/05/28 10:04:02;;;;;;;5.55;3.40;;;;;;;-142.75;37.50;76885.25;5043778;28;20029;-78
2021/05/28 10:06:29;;;;;;;5.70;4.07;;;;;;;-142.75;39.90;77154.97;5059538;28;20473;-77
2021/05/28 10:09:00;;;;;;;5.28;3.38;;;;;;;-142.75;41.62;76987.63;5040170;28;20024;-79
2021/05/28 10:11:26;;;;;;;5.32;3.55;;;;;;;-142.75;39.41;76700.22;5059689;28;20086;-79
2021/05/28 10:13:54;;;;;;;7.50;3.53;;;;;;;-142.75;36.91;76660.84;5063216;28;20036;-77
2021/05/28 10:16:21;;;;;;;9.45;3.80;;;;;;;-142.75;36.18;76804.53;5062352;28;20445;-78
2021/05/28 10:18:48;;;;;;;7.95;3.63;;;;;;;-142.75;39.66;77105.75;5039687;28;20033;-78
2021/05/28 10:21:14;;;;;;;5.90;4.00;;;;;;;-142.75;41.45;77121.50;5061310;28;20530;-78
2021/05/28 10:23:39;;;;;;;6.03;4.28;;;;;;;-142.75;43.39;77432.56;5048189;28;20059;-78
2021/05/28 10:26:04;;;;;;;6.47;4.03;;;;;;;-142.75;42.67;77271.13;5068762;28;20044;-78
2021/05/28 10:28:31;;;;;;;;;;;;;;;-142.75;42.51;77066.38;5057487;28;20452;-77
2021/05/28 10:30:57;;;;;;;6.28;3.65;;;;;;;-142.75;40.33;77072.28;5063172;28;19916;-78
2021/05/28 10:33:27;;;;;;;5.28;3.28;;;;;;;-142.75;38.51;76832.09;5056961;28;20036;-76
2021/05/28 10:36:03;;;;;;;8.38;3.78;;;;;;;-142.75;38.69;76999.44;5039977;28;20021;-77
2021/05/28 10:38:48;;;;;;;6.63;3.25;;;;;;;-142.75;40.05;77082.13;5043742;28;20032;-77
2021/05/28 10:41:14;;;;;;;5.82;3.53;;;;;;;-142.75;40.10;77076.22;5058213;28;20060;-77
2021/05/28 10:43:48;;;;;;;4.40;3.22;;;;;;;-142.75;40.03;77042.75;5064482;28;20055;-78
2021/05/28 10:46:13;;;;;;;4.45;3.25;;;;;;;-142.75;40.42;77184.50;5044739;28;20067;-77
2021/05/28 10:48:42;;;;;;;6.15;3.05;;;;;;;-142.75;39.49;77125.44;5061619;28;20068;-76
2021/05/28 10:51:12;;;;;;;5.13;3.13;;;;;;;-142.75;40.86;77149.06;5055951;28;20017;-77
2021/05/28 10:53:38;;;;;;;4.05;2.97;;;;;;;-142.75;39.68;77078.19;5057141;28;20078;-77
2021/05/28 10:56:12;;;;;;;5.00;2.53;;;;;;;-142.75;40.60;76956.13;5062071;28;20028;-78
2021/05/28 10:58:57;;;;;;;3.97;2.55;;;;;;;-142.75;38.50;76987.63;5040200;28;20032;-77
2021/05/28 11:01:34;;;;;;;3.42;2.05;;;;;;;-142.75;37.91;77121.50;5040818;28;20486;-77
2021/05/28 11:04:02;;;;;;;3.58;2.10;;;;;;;-142.75;38.30;76940.38;5058800;28;20393;-77
2021/05/28 11:06:28;;;;;;;3.90;2.20;;;;;;;-142.75;37.43;77001.41;5053868;28;20024;-78
2021/05/28 11:09:08;;;;;;;3.90;2.17;;;;;;;-142.75;37.38;76654.94;5062865;28;20513;-77
2021/05/28 11:11:36;;;;;;;4.95;3.20;;;;;;;-142.75;35.95;76597.84;5060117;28;20020;-77